createdAt,value
2023-03-30T00:00:29.272Z,0.72
2023-03-30T00:01:00.963Z,0.88
2023-03-30T00:01:32.632Z,0.60
2023-03-30T00:02:04.039Z,1.01
2023-03-30T00:02:35.523Z,0.72
2023-03-30T00:03:07.149Z,0.91
2023-03-30T00:03:38.788Z,0.95
2023-03-30T00:04:10.566Z,0.92
2023-03-30T00:04:42.149Z,0.67
2023-03-30T00:05:13.816Z,0.65
2023-03-30T00:05:45.342Z,0.71
2023-03-30T00:06:16.768Z,0.57
2023-03-30T00:06:48.210Z,0.65
2023-03-30T00:07:19.602Z,0.90
2023-03-30T00:07:51.009Z,1.02
2023-03-30T00:08:22.404Z,0.78
2023-03-30T00:08:53.846Z,0.78
2023-03-30T00:09:25.260Z,0.74
2023-03-30T00:09:56.652Z,0.80
2023-03-30T00:10:28.063Z,1.09
2023-03-30T00:10:59.476Z,0.58
2023-03-30T00:11:30.889Z,1.02
2023-03-30T00:12:02.337Z,1.00
2023-03-30T00:12:33.788Z,0.58
2023-03-30T00:13:05.198Z,0.63
2023-03-30T00:13:36.594Z,0.86
2023-03-30T00:14:07.993Z,0.57
2023-03-30T00:14:39.385Z,0.71
2023-03-30T00:15:10.796Z,0.90
2023-03-30T00:15:42.211Z,0.66
2023-03-30T00:16:13.673Z,0.87
2023-03-30T00:16:45.184Z,0.75
2023-03-30T00:17:16.637Z,0.82
2023-03-30T00:17:48.080Z,0.56
2023-03-30T00:18:19.495Z,0.89
2023-03-30T00:18:50.896Z,0.67
2023-03-30T00:19:22.336Z,0.84
2023-03-30T00:19:53.773Z,0.55
2023-03-30T00:20:25.239Z,0.61
2023-03-30T00:20:56.727Z,0.55
2023-03-30T00:21:28.133Z,0.71
2023-03-30T00:21:59.559Z,0.76
2023-03-30T00:22:30.989Z,0.73
2023-03-30T00:23:02.429Z,0.57
2023-03-30T00:23:33.845Z,0.87
2023-03-30T00:24:05.250Z,0.57
2023-03-30T00:24:36.680Z,0.61
2023-03-30T00:25:08.101Z,0.59
2023-03-30T00:25:39.494Z,0.77
2023-03-30T00:26:10.939Z,0.83
2023-03-30T00:26:42.334Z,0.63
2023-03-30T00:27:13.745Z,0.84
2023-03-30T00:27:45.146Z,0.50
2023-03-30T00:28:16.604Z,0.69
2023-03-30T00:28:48.041Z,0.90
2023-03-30T00:29:19.450Z,0.46
2023-03-30T00:29:50.857Z,0.77
2023-03-30T00:30:22.263Z,0.63
2023-03-30T00:30:53.691Z,0.67
2023-03-30T00:31:25.118Z,0.55
2023-03-30T00:31:56.566Z,0.84
2023-03-30T00:32:28.058Z,0.90
2023-03-30T00:32:59.506Z,0.73
2023-03-30T00:33:44.898Z,0.57
2023-03-30T00:34:18.207Z,0.87
2023-03-30T00:34:49.709Z,0.85
2023-03-30T00:35:21.141Z,0.68
2023-03-30T00:35:52.618Z,0.97
2023-03-30T00:36:24.075Z,0.96
2023-03-30T00:36:55.517Z,1.63
2023-03-30T00:37:26.915Z,0.75
2023-03-30T00:37:58.319Z,0.79
2023-03-30T00:38:29.771Z,0.85
2023-03-30T00:39:01.202Z,0.67
2023-03-30T00:39:32.827Z,0.69
2023-03-30T00:40:04.248Z,0.58
2023-03-30T00:40:35.876Z,0.62
2023-03-30T00:41:07.485Z,0.91
2023-03-30T00:41:38.992Z,0.72
2023-03-30T00:42:10.388Z,0.70
2023-03-30T00:42:41.807Z,0.61
2023-03-30T00:43:13.195Z,0.71
2023-03-30T00:43:44.606Z,0.62
2023-03-30T00:44:16.077Z,0.81
2023-03-30T00:44:47.513Z,0.64
2023-03-30T00:45:18.943Z,0.64
2023-03-30T00:45:50.379Z,0.76
2023-03-30T00:46:21.900Z,0.73
2023-03-30T00:46:53.295Z,0.94
2023-03-30T00:47:24.781Z,0.64
2023-03-30T00:47:56.423Z,0.61
2023-03-30T00:48:27.869Z,0.63
2023-03-30T00:48:59.278Z,0.44
2023-03-30T00:49:30.705Z,0.92
2023-03-30T00:50:02.156Z,0.75
2023-03-30T00:50:33.590Z,0.81
2023-03-30T00:51:05.251Z,0.43
2023-03-30T00:51:36.965Z,0.61
2023-03-30T00:52:08.388Z,0.76
2023-03-30T00:52:39.786Z,0.50
2023-03-30T00:53:11.185Z,0.37
2023-03-30T00:53:42.581Z,0.79
2023-03-30T00:54:14.005Z,0.58
2023-03-30T00:54:45.441Z,0.98
2023-03-30T00:55:16.845Z,0.48
2023-03-30T00:55:48.245Z,0.76
2023-03-30T00:56:19.660Z,1.02
2023-03-30T00:56:51.115Z,0.68
2023-03-30T00:57:22.576Z,0.79
2023-03-30T00:57:54.040Z,0.74
2023-03-30T00:58:25.438Z,0.56
2023-03-30T00:58:56.845Z,0.66
2023-03-30T00:59:28.284Z,0.88
2023-03-30T00:59:59.707Z,0.69
2023-03-30T01:00:31.142Z,0.62
2023-03-30T01:01:02.739Z,0.72
2023-03-30T01:01:34.421Z,0.56
2023-03-30T01:02:05.905Z,0.75
2023-03-30T01:02:37.437Z,0.90
2023-03-30T01:03:08.934Z,0.78
2023-03-30T01:03:40.604Z,0.67
2023-03-30T01:04:12.150Z,0.59
2023-03-30T01:04:43.605Z,0.67
2023-03-30T01:05:15.055Z,0.81
2023-03-30T01:05:46.450Z,0.57
2023-03-30T01:06:18.005Z,0.63
2023-03-30T01:06:49.605Z,0.57
2023-03-30T01:07:21.013Z,0.89
2023-03-30T01:07:52.403Z,0.74
2023-03-30T01:08:23.819Z,0.67
2023-03-30T01:08:55.247Z,0.66
2023-03-30T01:09:26.638Z,0.72
2023-03-30T01:09:58.042Z,0.75
2023-03-30T01:10:29.453Z,0.87
2023-03-30T01:11:01.016Z,0.69
2023-03-30T01:11:32.533Z,0.70
2023-03-30T01:12:03.923Z,0.77
2023-03-30T01:12:35.322Z,0.70
2023-03-30T01:13:06.736Z,0.57
2023-03-30T01:13:38.182Z,0.72
2023-03-30T01:14:09.574Z,0.88
2023-03-30T01:14:40.971Z,0.74
2023-03-30T01:15:12.389Z,0.64
2023-03-30T01:15:43.812Z,0.64
2023-03-30T01:16:15.359Z,0.69
2023-03-30T01:16:46.884Z,0.50
2023-03-30T01:17:18.311Z,0.88
2023-03-30T01:17:49.730Z,0.51
2023-03-30T01:18:21.207Z,0.58
2023-03-30T01:18:52.608Z,0.59
2023-03-30T01:19:24.062Z,0.66
2023-03-30T01:19:55.446Z,0.58
2023-03-30T01:20:26.882Z,0.65
2023-03-30T01:20:58.299Z,0.86
2023-03-30T01:21:29.707Z,0.84
2023-03-30T01:22:01.135Z,0.74
2023-03-30T01:22:32.610Z,0.52
2023-03-30T01:23:04.002Z,0.78
2023-03-30T01:23:35.422Z,0.63
2023-03-30T01:24:06.821Z,0.47
2023-03-30T01:24:38.281Z,0.77
2023-03-30T01:25:09.679Z,0.78
2023-03-30T01:25:41.117Z,0.72
2023-03-30T01:26:12.521Z,0.64
2023-03-30T01:26:44.005Z,0.57
2023-03-30T01:27:15.394Z,0.69
2023-03-30T01:27:46.811Z,0.47
2023-03-30T01:28:18.211Z,0.82
2023-03-30T01:28:49.598Z,0.55
2023-03-30T01:29:21.006Z,0.57
2023-03-30T01:29:52.472Z,0.92
2023-03-30T01:30:23.884Z,0.61
2023-03-30T01:30:55.385Z,0.56
2023-03-30T01:31:26.936Z,0.60
2023-03-30T01:31:58.361Z,0.67
2023-03-30T01:32:29.848Z,0.65
2023-03-30T01:33:01.345Z,0.81
2023-03-30T01:33:32.784Z,0.45
2023-03-30T01:34:04.199Z,0.42
2023-03-30T01:34:35.610Z,0.69
2023-03-30T01:35:07.041Z,0.75
2023-03-30T01:35:38.555Z,0.58
2023-03-30T01:36:10.071Z,0.73
2023-03-30T01:36:41.571Z,0.68
2023-03-30T01:37:13.008Z,0.83
2023-03-30T01:37:44.421Z,0.68
2023-03-30T01:38:15.818Z,0.66
2023-03-30T01:38:47.243Z,0.75
2023-03-30T01:39:18.660Z,0.76
2023-03-30T01:39:50.064Z,0.71
2023-03-30T01:40:21.494Z,0.61
2023-03-30T01:40:52.905Z,0.59
2023-03-30T01:41:24.395Z,0.39
2023-03-30T01:41:55.791Z,0.54
2023-03-30T01:42:27.204Z,0.71
2023-03-30T01:42:58.634Z,0.71
2023-03-30T01:43:30.026Z,0.87
2023-03-30T01:44:01.440Z,0.68
2023-03-30T01:44:32.859Z,0.74
2023-03-30T01:45:04.265Z,0.46
2023-03-30T01:45:35.657Z,0.51
2023-03-30T01:46:07.125Z,0.73
2023-03-30T01:46:38.599Z,0.70
2023-03-30T01:47:10.039Z,0.63
2023-03-30T01:47:41.476Z,0.78
2023-03-30T01:48:12.921Z,0.64
2023-03-30T01:48:44.343Z,0.70
2023-03-30T01:49:15.742Z,0.98
2023-03-30T01:49:47.157Z,0.89
2023-03-30T01:50:18.622Z,0.81
2023-03-30T01:50:50.026Z,0.77
2023-03-30T01:51:21.423Z,0.49
2023-03-30T01:51:52.844Z,0.56
2023-03-30T01:52:24.241Z,0.56
2023-03-30T01:52:55.650Z,0.67
2023-03-30T01:53:27.039Z,0.53
2023-03-30T01:53:58.447Z,0.59
2023-03-30T01:54:29.834Z,0.67
2023-03-30T01:55:01.260Z,0.52
2023-03-30T01:55:32.661Z,0.64
2023-03-30T01:56:04.063Z,0.67
2023-03-30T01:56:35.459Z,0.61
2023-03-30T01:57:07.036Z,0.72
2023-03-30T01:57:38.510Z,0.64
2023-03-30T01:58:09.910Z,0.63
2023-03-30T01:58:41.316Z,0.57
2023-03-30T01:59:12.721Z,0.75
2023-03-30T01:59:44.179Z,0.60
2023-03-30T02:00:15.580Z,0.82
2023-03-30T02:00:47.013Z,0.47
2023-03-30T02:01:18.441Z,0.64
2023-03-30T02:01:49.915Z,0.51
2023-03-30T02:02:21.398Z,0.72
2023-03-30T02:02:52.869Z,0.78
2023-03-30T02:03:24.451Z,0.48
2023-03-30T02:03:56.026Z,0.50
2023-03-30T02:04:27.497Z,0.77
2023-03-30T02:04:58.918Z,0.58
2023-03-30T02:05:30.327Z,0.60
2023-03-30T02:06:01.744Z,0.46
2023-03-30T02:06:33.156Z,0.69
2023-03-30T02:07:04.561Z,0.49
2023-03-30T02:07:35.974Z,0.65
2023-03-30T02:08:07.378Z,0.72
2023-03-30T02:08:38.774Z,0.45
2023-03-30T02:09:10.189Z,0.49
2023-03-30T02:09:41.593Z,0.45
2023-03-30T02:10:13.030Z,0.80
2023-03-30T02:10:44.451Z,0.71
2023-03-30T02:11:15.859Z,0.70
2023-03-30T02:11:47.271Z,0.36
2023-03-30T02:12:18.668Z,0.68
2023-03-30T02:12:50.114Z,0.78
2023-03-30T02:13:21.527Z,0.75
2023-03-30T02:13:52.927Z,0.54
2023-03-30T02:14:24.351Z,0.59
2023-03-30T02:14:55.790Z,0.47
2023-03-30T02:15:27.211Z,0.65
2023-03-30T02:15:58.715Z,0.68
2023-03-30T02:16:30.188Z,0.45
2023-03-30T02:17:01.598Z,0.44
2023-03-30T02:17:33.011Z,0.93
2023-03-30T02:18:04.449Z,0.92
2023-03-30T02:18:35.927Z,0.84
2023-03-30T02:19:07.344Z,0.56
2023-03-30T02:19:38.784Z,0.67
2023-03-30T02:20:10.192Z,0.71
2023-03-30T02:20:41.599Z,0.79
2023-03-30T02:21:12.994Z,0.64
2023-03-30T02:21:44.412Z,0.62
2023-03-30T02:22:15.825Z,0.55
2023-03-30T02:22:47.255Z,0.50
2023-03-30T02:23:18.669Z,0.57
2023-03-30T02:23:50.086Z,0.43
2023-03-30T02:24:21.484Z,0.60
2023-03-30T02:24:52.882Z,0.43
2023-03-30T02:25:24.300Z,0.68
2023-03-30T02:25:55.707Z,0.49
2023-03-30T02:26:27.108Z,0.73
2023-03-30T02:26:58.530Z,0.83
2023-03-30T02:27:29.946Z,0.96
2023-03-30T02:28:01.422Z,0.70
2023-03-30T02:28:32.833Z,0.43
2023-03-30T02:29:04.284Z,0.54
2023-03-30T02:29:35.738Z,0.66
2023-03-30T02:30:07.163Z,0.83
2023-03-30T02:30:38.575Z,0.80
2023-03-30T02:31:10.056Z,0.65
2023-03-30T02:31:41.525Z,0.75
2023-03-30T02:32:12.976Z,0.64
2023-03-30T02:32:44.466Z,0.68
2023-03-30T02:33:15.963Z,0.55
2023-03-30T02:33:47.419Z,0.74
2023-03-30T02:34:18.828Z,0.83
2023-03-30T02:34:50.225Z,0.77
2023-03-30T02:35:21.638Z,0.71
2023-03-30T02:35:53.079Z,0.45
2023-03-30T02:36:24.539Z,0.49
2023-03-30T02:36:55.934Z,0.74
2023-03-30T02:37:27.348Z,0.84
2023-03-30T02:37:58.766Z,0.87
2023-03-30T02:38:30.162Z,0.59
2023-03-30T02:39:01.578Z,0.52
2023-03-30T02:39:32.999Z,0.56
2023-03-30T02:40:04.400Z,0.36
2023-03-30T02:40:35.805Z,0.45
2023-03-30T02:41:07.204Z,0.50
2023-03-30T02:41:38.611Z,0.71
2023-03-30T02:42:10.013Z,0.54
2023-03-30T02:42:41.410Z,0.50
2023-03-30T02:43:12.838Z,0.25
2023-03-30T02:43:44.242Z,0.63
2023-03-30T02:44:15.670Z,0.87
2023-03-30T02:44:47.084Z,0.69
2023-03-30T02:45:18.488Z,0.42
2023-03-30T02:45:49.893Z,0.84
2023-03-30T02:46:21.577Z,0.87
2023-03-30T02:46:53.192Z,0.63
2023-03-30T02:47:24.757Z,0.44
2023-03-30T02:47:56.271Z,0.60
2023-03-30T02:48:27.781Z,0.59
2023-03-30T02:48:59.252Z,0.64
2023-03-30T02:49:30.670Z,0.77
2023-03-30T02:50:02.099Z,0.46
2023-03-30T02:50:33.505Z,0.66
2023-03-30T02:51:05.027Z,0.64
2023-03-30T02:51:36.601Z,0.58
2023-03-30T02:52:08.017Z,0.61
2023-03-30T02:52:39.436Z,0.53
2023-03-30T02:53:10.846Z,0.49
2023-03-30T02:53:42.305Z,0.39
2023-03-30T02:54:13.723Z,0.61
2023-03-30T02:54:45.134Z,0.53
2023-03-30T02:55:16.573Z,0.70
2023-03-30T02:55:47.957Z,0.39
2023-03-30T02:56:19.370Z,0.54
2023-03-30T02:56:50.793Z,0.81
2023-03-30T02:57:22.387Z,0.78
2023-03-30T02:57:54.007Z,0.77
2023-03-30T02:58:25.417Z,0.65
2023-03-30T02:58:56.835Z,0.62
2023-03-30T02:59:28.252Z,0.86
2023-03-30T02:59:59.642Z,0.56
2023-03-30T03:00:31.079Z,0.59
2023-03-30T03:01:02.771Z,0.62
2023-03-30T03:01:34.453Z,0.59
2023-03-30T03:02:06.118Z,0.58
2023-03-30T03:02:37.776Z,0.83
2023-03-30T03:03:09.243Z,0.73
2023-03-30T03:03:40.809Z,0.55
2023-03-30T03:04:12.274Z,0.66
2023-03-30T03:04:43.758Z,0.55
2023-03-30T03:05:15.203Z,0.77
2023-03-30T03:05:46.622Z,0.63
2023-03-30T03:06:18.035Z,0.82
2023-03-30T03:06:49.426Z,0.63
2023-03-30T03:07:20.837Z,0.53
2023-03-30T03:07:52.253Z,0.37
2023-03-30T03:08:23.666Z,0.64
2023-03-30T03:08:55.064Z,0.60
2023-03-30T03:09:26.526Z,0.51
2023-03-30T03:09:57.947Z,0.56
2023-03-30T03:10:29.345Z,0.67
2023-03-30T03:11:00.768Z,0.66
2023-03-30T03:11:32.156Z,0.53
2023-03-30T03:12:03.559Z,0.53
2023-03-30T03:12:34.965Z,0.45
2023-03-30T03:13:06.384Z,0.61
2023-03-30T03:13:37.785Z,0.54
2023-03-30T03:14:09.210Z,0.68
2023-03-30T03:14:40.615Z,0.63
2023-03-30T03:15:12.027Z,0.61
2023-03-30T03:15:43.423Z,0.75
2023-03-30T03:16:14.857Z,0.54
2023-03-30T03:16:46.321Z,0.61
2023-03-30T03:17:17.812Z,0.54
2023-03-30T03:17:49.266Z,0.48
2023-03-30T03:18:20.778Z,0.42
2023-03-30T03:18:52.205Z,0.67
2023-03-30T03:19:23.625Z,0.50
2023-03-30T03:19:55.029Z,0.68
2023-03-30T03:20:26.426Z,0.68
2023-03-30T03:20:57.841Z,0.62
2023-03-30T03:21:29.285Z,0.67
2023-03-30T03:22:00.686Z,0.76
2023-03-30T03:22:32.096Z,0.48
2023-03-30T03:23:03.519Z,0.57
2023-03-30T03:23:34.917Z,0.69
2023-03-30T03:24:06.313Z,0.77
2023-03-30T03:24:37.748Z,0.74
2023-03-30T03:25:09.188Z,0.71
2023-03-30T03:25:40.587Z,0.57
2023-03-30T03:26:11.982Z,0.53
2023-03-30T03:26:43.383Z,0.66
2023-03-30T03:27:14.795Z,0.50
2023-03-30T03:27:46.224Z,0.61
2023-03-30T03:28:17.641Z,0.72
2023-03-30T03:28:49.047Z,0.57
2023-03-30T03:29:20.478Z,0.64
2023-03-30T03:29:51.882Z,0.57
2023-03-30T03:30:23.289Z,0.58
2023-03-30T03:30:54.744Z,0.56
2023-03-30T03:31:26.280Z,0.66
2023-03-30T03:31:57.745Z,0.53
2023-03-30T03:32:29.156Z,0.49
2023-03-30T03:33:00.640Z,0.52
2023-03-30T03:33:32.061Z,0.44
2023-03-30T03:34:03.469Z,0.70
2023-03-30T03:34:34.924Z,0.49
2023-03-30T03:35:06.331Z,0.61
2023-03-30T03:35:37.751Z,0.62
2023-03-30T03:36:09.205Z,0.73
2023-03-30T03:36:40.654Z,0.62
2023-03-30T03:37:12.051Z,0.55
2023-03-30T03:37:43.482Z,0.63
2023-03-30T03:38:14.879Z,0.58
2023-03-30T03:38:46.293Z,0.70
2023-03-30T03:39:17.684Z,0.61
2023-03-30T03:39:49.134Z,0.55
2023-03-30T03:40:20.542Z,0.61
2023-03-30T03:40:51.945Z,0.65
2023-03-30T03:41:23.359Z,0.67
2023-03-30T03:41:54.781Z,0.53
2023-03-30T03:42:26.179Z,0.64
2023-03-30T03:42:57.575Z,0.51
2023-03-30T03:43:28.972Z,0.56
2023-03-30T03:44:00.379Z,0.38
2023-03-30T03:44:31.851Z,0.62
2023-03-30T03:45:03.332Z,0.59
2023-03-30T03:45:34.758Z,0.57
2023-03-30T03:46:06.207Z,0.60
2023-03-30T03:46:37.657Z,0.61
2023-03-30T03:47:09.096Z,0.65
2023-03-30T03:47:40.523Z,0.65
2023-03-30T03:48:11.945Z,0.59
2023-03-30T03:48:43.366Z,0.62
2023-03-30T03:49:14.760Z,0.40
2023-03-30T03:49:46.156Z,0.69
2023-03-30T03:50:17.573Z,0.47
2023-03-30T03:50:48.982Z,0.42
2023-03-30T03:51:20.383Z,0.66
2023-03-30T03:51:51.798Z,0.60
2023-03-30T03:52:23.202Z,0.69
2023-03-30T03:52:54.606Z,0.54
2023-03-30T03:53:26.011Z,0.48
2023-03-30T03:53:57.427Z,0.84
2023-03-30T03:54:28.846Z,0.73
2023-03-30T03:55:00.253Z,0.60
2023-03-30T03:55:31.688Z,0.76
2023-03-30T03:56:03.111Z,0.86
2023-03-30T03:56:34.510Z,0.57
2023-03-30T03:57:05.971Z,0.50
2023-03-30T03:57:37.389Z,0.67
2023-03-30T03:58:08.812Z,0.74
2023-03-30T03:58:40.202Z,0.65
2023-03-30T03:59:11.590Z,0.63
2023-03-30T03:59:43.004Z,0.59
2023-03-30T04:00:14.491Z,0.53
2023-03-30T04:00:45.955Z,0.51
2023-03-30T04:01:17.375Z,0.49
2023-03-30T04:01:48.844Z,0.46
2023-03-30T04:02:22.535Z,0.79
2023-03-30T04:02:55.341Z,0.48
2023-03-30T04:03:26.768Z,0.57
2023-03-30T04:03:58.187Z,0.75
2023-03-30T04:04:29.625Z,0.68
2023-03-30T04:05:01.209Z,0.80
2023-03-30T04:05:32.677Z,0.54
2023-03-30T04:06:04.094Z,0.77
2023-03-30T04:06:35.497Z,0.69
2023-03-30T04:07:06.924Z,0.48
2023-03-30T04:07:38.328Z,0.57
2023-03-30T04:08:09.747Z,0.52
2023-03-30T04:08:41.135Z,0.54
2023-03-30T04:09:12.581Z,0.75
2023-03-30T04:09:43.983Z,0.73
2023-03-30T04:10:15.401Z,0.55
2023-03-30T04:10:46.823Z,0.68
2023-03-30T04:11:18.245Z,0.55
2023-03-30T04:11:49.634Z,0.69
2023-03-30T04:12:21.027Z,0.67
2023-03-30T04:12:52.437Z,0.44
2023-03-30T04:13:23.855Z,0.60
2023-03-30T04:13:55.283Z,0.55
2023-03-30T04:14:26.704Z,0.79
2023-03-30T04:14:58.120Z,0.31
2023-03-30T04:15:29.534Z,0.55
2023-03-30T04:16:00.969Z,0.55
2023-03-30T04:16:32.454Z,0.60
2023-03-30T04:17:03.885Z,0.40
2023-03-30T04:17:35.350Z,0.66
2023-03-30T04:18:06.831Z,0.77
2023-03-30T04:18:38.277Z,0.69
2023-03-30T04:19:09.684Z,0.58
2023-03-30T04:19:41.086Z,0.45
2023-03-30T04:20:12.561Z,0.60
2023-03-30T04:20:43.985Z,0.52
2023-03-30T04:21:15.385Z,0.78
2023-03-30T04:21:46.815Z,0.60
2023-03-30T04:22:18.210Z,0.39
2023-03-30T04:22:49.606Z,0.55
2023-03-30T04:23:21.016Z,0.68
2023-03-30T04:23:52.411Z,0.55
2023-03-30T04:24:23.824Z,0.49
2023-03-30T04:24:55.238Z,0.59
2023-03-30T04:25:26.634Z,0.43
2023-03-30T04:25:58.022Z,0.73
2023-03-30T04:26:29.416Z,0.63
2023-03-30T04:27:00.852Z,0.69
2023-03-30T04:27:32.252Z,0.52
2023-03-30T04:28:03.667Z,0.65
2023-03-30T04:28:35.110Z,0.70
2023-03-30T04:29:06.519Z,0.60
2023-03-30T04:29:37.926Z,0.53
2023-03-30T04:30:09.331Z,1.00
2023-03-30T04:30:40.745Z,0.63
2023-03-30T04:31:12.151Z,0.48
2023-03-30T04:31:43.590Z,0.68
2023-03-30T04:32:15.054Z,0.58
2023-03-30T04:32:46.507Z,0.54
2023-03-30T04:33:17.936Z,0.53
2023-03-30T04:33:50.913Z,0.66
2023-03-30T04:34:23.070Z,0.65
2023-03-30T04:34:54.525Z,0.49
2023-03-30T04:35:25.955Z,0.77
2023-03-30T04:35:57.372Z,0.72
2023-03-30T04:36:28.782Z,0.84
2023-03-30T04:37:00.178Z,0.84
2023-03-30T04:37:31.608Z,0.57
2023-03-30T04:38:03.079Z,0.38
2023-03-30T04:38:34.472Z,0.45
2023-03-30T04:39:05.893Z,0.55
2023-03-30T04:39:37.330Z,0.68
2023-03-30T04:40:08.724Z,0.54
2023-03-30T04:40:40.128Z,0.58
2023-03-30T04:41:11.538Z,0.66
2023-03-30T04:41:42.947Z,0.63
2023-03-30T04:42:14.450Z,0.62
2023-03-30T04:42:45.890Z,0.42
2023-03-30T04:43:17.324Z,0.55
2023-03-30T04:43:48.780Z,0.45
2023-03-30T04:44:20.207Z,0.59
2023-03-30T04:44:51.606Z,0.89
2023-03-30T04:45:22.999Z,0.62
2023-03-30T04:45:54.454Z,0.83
2023-03-30T04:46:25.959Z,0.62
2023-03-30T04:46:57.353Z,0.65
2023-03-30T04:47:28.807Z,0.84
2023-03-30T04:48:00.303Z,0.93
2023-03-30T04:48:31.743Z,0.71
2023-03-30T04:49:03.192Z,0.32
2023-03-30T04:49:34.579Z,0.63
2023-03-30T04:50:05.984Z,0.55
2023-03-30T04:50:37.389Z,0.51
2023-03-30T04:51:08.805Z,0.58
2023-03-30T04:51:40.203Z,0.45
2023-03-30T04:52:11.617Z,0.66
2023-03-30T04:52:43.020Z,0.58
2023-03-30T04:53:14.429Z,0.64
2023-03-30T04:53:45.848Z,0.63
2023-03-30T04:54:17.361Z,0.71
2023-03-30T04:54:48.766Z,0.55
2023-03-30T04:55:20.234Z,0.69
2023-03-30T04:55:51.658Z,0.53
2023-03-30T04:56:23.068Z,0.50
2023-03-30T04:56:54.514Z,0.51
2023-03-30T04:57:26.043Z,0.68
2023-03-30T04:57:57.483Z,0.62
2023-03-30T04:58:28.882Z,0.40
2023-03-30T04:59:00.440Z,0.49
2023-03-30T04:59:31.911Z,0.83
2023-03-30T05:00:03.314Z,0.79
2023-03-30T05:00:34.720Z,0.70
2023-03-30T05:01:06.386Z,0.53
2023-03-30T05:01:38.105Z,0.76
2023-03-30T05:02:09.593Z,0.55
2023-03-30T05:02:41.145Z,0.87
2023-03-30T05:03:12.855Z,0.66
2023-03-30T05:03:44.553Z,0.69
2023-03-30T05:04:15.957Z,0.63
2023-03-30T05:04:47.369Z,0.35
2023-03-30T05:05:18.806Z,0.66
2023-03-30T05:05:50.234Z,0.78
2023-03-30T05:06:21.635Z,0.62
2023-03-30T05:06:53.054Z,0.52
2023-03-30T05:07:24.442Z,0.69
2023-03-30T05:07:55.853Z,0.57
2023-03-30T05:08:27.246Z,0.74
2023-03-30T05:08:58.666Z,0.69
2023-03-30T05:09:30.068Z,0.75
2023-03-30T05:10:01.572Z,0.56
2023-03-30T05:10:33.006Z,0.54
2023-03-30T05:11:04.509Z,0.65
2023-03-30T05:11:36.115Z,0.55
2023-03-30T05:12:07.727Z,0.68
2023-03-30T05:12:39.140Z,0.92
2023-03-30T05:13:10.544Z,0.55
2023-03-30T05:13:41.970Z,0.70
2023-03-30T05:14:13.362Z,0.67
2023-03-30T05:14:44.774Z,0.70
2023-03-30T05:15:16.228Z,0.46
2023-03-30T05:15:47.638Z,0.55
2023-03-30T05:16:19.103Z,0.64
2023-03-30T05:16:50.660Z,0.45
2023-03-30T05:17:22.076Z,0.49
2023-03-30T05:17:53.500Z,0.39
2023-03-30T05:18:24.969Z,0.46
2023-03-30T05:18:56.373Z,0.64
2023-03-30T05:19:27.799Z,0.62
2023-03-30T05:19:59.211Z,0.36
2023-03-30T05:20:30.629Z,0.66
2023-03-30T05:21:02.142Z,0.55
2023-03-30T05:21:33.671Z,0.42
2023-03-30T05:22:05.092Z,0.57
2023-03-30T05:22:36.497Z,0.88
2023-03-30T05:23:07.930Z,0.75
2023-03-30T05:23:39.333Z,0.72
2023-03-30T05:24:10.755Z,0.74
2023-03-30T05:24:42.196Z,0.71
2023-03-30T05:25:13.591Z,0.54
2023-03-30T05:25:45.004Z,0.63
2023-03-30T05:26:16.441Z,0.45
2023-03-30T05:26:47.892Z,0.63
2023-03-30T05:27:19.662Z,0.71
2023-03-30T05:27:51.082Z,0.60
2023-03-30T05:28:22.505Z,0.71
2023-03-30T05:28:53.909Z,0.55
2023-03-30T05:29:25.326Z,0.66
2023-03-30T05:29:56.742Z,0.46
2023-03-30T05:30:28.204Z,0.42
2023-03-30T05:30:59.634Z,0.63
2023-03-30T05:31:31.057Z,0.60
2023-03-30T05:32:02.511Z,0.76
2023-03-30T05:32:34.025Z,0.70
2023-03-30T05:33:05.475Z,0.62
2023-03-30T05:33:36.943Z,0.51
2023-03-30T05:34:08.370Z,0.56
2023-03-30T05:34:39.788Z,0.69
2023-03-30T05:35:11.198Z,0.78
2023-03-30T05:35:42.633Z,0.48
2023-03-30T05:36:14.102Z,0.53
2023-03-30T05:36:45.506Z,0.52
2023-03-30T05:37:16.915Z,0.37
2023-03-30T05:37:48.451Z,0.56
2023-03-30T05:38:19.885Z,0.72
2023-03-30T05:38:51.375Z,0.46
2023-03-30T05:39:22.814Z,0.81
2023-03-30T05:39:54.209Z,0.60
2023-03-30T05:40:25.607Z,0.74
2023-03-30T05:40:57.127Z,0.65
2023-03-30T05:41:28.648Z,0.81
2023-03-30T05:42:00.091Z,0.65
2023-03-30T05:42:31.532Z,0.62
2023-03-30T05:43:02.936Z,0.82
2023-03-30T05:43:34.365Z,0.46
2023-03-30T05:44:05.777Z,0.89
2023-03-30T05:44:37.217Z,0.78
2023-03-30T05:45:08.629Z,0.64
2023-03-30T05:45:40.068Z,0.57
2023-03-30T05:46:11.513Z,0.66
2023-03-30T05:46:43.073Z,0.54
2023-03-30T05:47:14.592Z,0.59
2023-03-30T05:47:46.036Z,0.70
2023-03-30T05:48:17.549Z,0.63
2023-03-30T05:48:48.968Z,0.64
2023-03-30T05:49:20.379Z,0.83
2023-03-30T05:49:51.815Z,0.67
2023-03-30T05:50:23.270Z,1.02
2023-03-30T05:50:54.670Z,0.64
2023-03-30T05:51:26.081Z,0.68
2023-03-30T05:51:57.493Z,0.69
2023-03-30T05:52:28.894Z,0.76
2023-03-30T05:53:00.291Z,0.81
2023-03-30T05:53:31.708Z,0.94
2023-03-30T05:54:03.101Z,0.78
2023-03-30T05:54:34.539Z,0.91
2023-03-30T05:55:05.988Z,0.83
2023-03-30T05:55:37.385Z,0.93
2023-03-30T05:56:08.830Z,0.69
2023-03-30T05:56:40.280Z,0.84
2023-03-30T05:57:11.732Z,0.97
2023-03-30T05:57:43.162Z,1.24
2023-03-30T05:58:14.576Z,1.31
2023-03-30T05:58:46.122Z,0.95
2023-03-30T05:59:17.570Z,0.96
2023-03-30T05:59:48.964Z,0.79
2023-03-30T06:00:20.425Z,0.82
2023-03-30T06:00:51.845Z,1.19
2023-03-30T06:01:23.269Z,1.02
2023-03-30T06:01:54.715Z,1.28
2023-03-30T06:02:26.200Z,0.94
2023-03-30T06:02:57.749Z,1.18
2023-03-30T06:03:29.307Z,1.27
2023-03-30T06:04:01.053Z,0.93
2023-03-30T06:04:32.659Z,0.81
2023-03-30T06:05:04.566Z,0.86
2023-03-30T06:05:36.687Z,1.15
2023-03-30T06:06:08.328Z,1.32
2023-03-30T06:06:39.760Z,1.28
2023-03-30T06:07:11.158Z,1.22
2023-03-30T06:07:42.580Z,1.08
2023-03-30T06:08:13.980Z,1.24
2023-03-30T06:08:45.379Z,1.16
2023-03-30T06:09:16.778Z,1.16
2023-03-30T06:09:48.171Z,1.05
2023-03-30T06:10:19.583Z,0.80
2023-03-30T06:10:51.262Z,1.00
2023-03-30T06:11:22.659Z,0.83
2023-03-30T06:11:54.066Z,0.83
2023-03-30T06:12:25.583Z,1.13
2023-03-30T06:12:57.391Z,0.83
2023-03-30T06:13:28.900Z,1.04
2023-03-30T06:14:00.574Z,0.80
2023-03-30T06:14:32.012Z,0.84
2023-03-30T06:15:03.800Z,1.25
2023-03-30T06:15:35.437Z,0.74
2023-03-30T06:16:07.292Z,0.91
2023-03-30T06:16:39.316Z,0.62
2023-03-30T06:17:11.031Z,0.81
2023-03-30T06:17:42.626Z,0.89
2023-03-30T06:18:14.567Z,1.17
2023-03-30T06:18:46.236Z,1.12
2023-03-30T06:19:17.796Z,1.33
2023-03-30T06:19:51.895Z,1.19
2023-03-30T06:20:23.529Z,0.61
2023-03-30T06:20:55.375Z,0.98
2023-03-30T06:21:26.950Z,1.31
2023-03-30T06:21:58.485Z,1.06
2023-03-30T06:22:31.846Z,1.33
2023-03-30T06:23:03.405Z,1.18
2023-03-30T06:23:34.989Z,1.07
2023-03-30T06:24:06.415Z,1.14
2023-03-30T06:24:37.856Z,1.24
2023-03-30T06:25:09.379Z,0.93
2023-03-30T06:25:40.871Z,1.38
2023-03-30T06:26:12.423Z,1.34
2023-03-30T06:26:43.934Z,1.36
2023-03-30T06:27:15.343Z,0.92
2023-03-30T06:27:47.121Z,0.95
2023-03-30T06:28:18.815Z,0.98
2023-03-30T06:28:50.361Z,1.14
2023-03-30T06:29:21.895Z,1.21
2023-03-30T06:29:56.402Z,0.80
2023-03-30T06:30:27.979Z,1.01
2023-03-30T06:30:59.456Z,1.26
2023-03-30T06:31:30.930Z,1.03
2023-03-30T06:32:02.618Z,1.23
2023-03-30T06:32:34.253Z,1.13
2023-03-30T06:33:05.848Z,1.47
2023-03-30T06:33:37.884Z,0.91
2023-03-30T06:34:11.306Z,1.02
2023-03-30T06:34:42.838Z,0.97
2023-03-30T06:35:14.448Z,0.95
2023-03-30T06:35:45.928Z,1.12
2023-03-30T06:36:17.643Z,1.28
2023-03-30T06:36:49.200Z,1.24
2023-03-30T06:37:20.629Z,0.91
2023-03-30T06:37:52.040Z,1.14
2023-03-30T06:38:23.510Z,1.46
2023-03-30T06:38:54.952Z,1.46
2023-03-30T06:39:26.492Z,1.58
2023-03-30T06:39:58.033Z,1.61
2023-03-30T06:40:29.435Z,1.38
2023-03-30T06:41:01.299Z,1.56
2023-03-30T06:41:32.925Z,1.69
2023-03-30T06:42:04.338Z,1.40
2023-03-30T06:42:35.742Z,1.81
2023-03-30T06:43:07.151Z,1.74
2023-03-30T06:43:38.559Z,1.28
2023-03-30T06:44:09.956Z,1.15
2023-03-30T06:44:41.354Z,1.19
2023-03-30T06:45:12.760Z,1.18
2023-03-30T06:45:44.228Z,1.44
2023-03-30T06:46:15.736Z,1.01
2023-03-30T06:46:47.272Z,1.37
2023-03-30T06:47:18.691Z,1.28
2023-03-30T06:47:50.155Z,1.16
2023-03-30T06:48:21.578Z,0.95
2023-03-30T06:48:53.012Z,1.13
2023-03-30T06:49:24.435Z,1.07
2023-03-30T06:49:55.917Z,1.40
2023-03-30T06:50:27.455Z,1.29
2023-03-30T06:50:58.903Z,1.29
2023-03-30T06:51:30.338Z,0.87
2023-03-30T06:52:04.956Z,1.21
2023-03-30T06:52:37.648Z,1.22
2023-03-30T06:53:09.060Z,1.32
2023-03-30T06:53:40.473Z,1.24
2023-03-30T06:54:11.919Z,1.46
2023-03-30T06:54:43.336Z,1.60
2023-03-30T06:55:14.759Z,1.45
2023-03-30T06:55:46.191Z,0.96
2023-03-30T06:56:17.607Z,1.10
2023-03-30T06:56:49.053Z,1.37
2023-03-30T06:57:20.577Z,1.46
2023-03-30T06:57:52.044Z,1.31
2023-03-30T06:58:23.685Z,1.67
2023-03-30T06:58:55.217Z,1.45
2023-03-30T06:59:26.628Z,1.37